Latest Weather Observations for Little Bay

IDN60901

Issued at 2:51 pm EDT Monday 18 November 2019 (issued every 10 minutes, with the page automatically refreshed every 10 minutes)

About weather observations | Map of Sydney area stations | Latest observations for Sydney area | Other Formats
Station Details ID: 066051 Name: LITTLE BAY (THE COAST GOLF CLUB) Lat: -33.98 Lon: 151.25 Height: 22.0 m
Data from the previous 72 hours. | See also: Recent months at Little Bay
Date/Time
EDT
Temp
°C
App
Temp
°C
Dew
Point
°C
Rel
Hum
%
Delta-T
°C
Wind Press
QNH
hPa
Press
MSL
hPa
Rain since
9am
mm
Dir  Spd
km/h
Gust
km/h
Spd
kts
Gust
kts
18/02:30pm - - - - - NNE 30 37 16 20 - - -
18/02:00pm - - - - - NNE 30 35 16 19 - - -
18/01:30pm - - - - - NNE 30 39 16 21 - - -
18/01:00pm - - - - - NNE 26 35 14 19 - - -
18/12:30pm - - - - - NNE 28 35 15 19 - - -
18/12:00pm - - - - - NE 26 33 14 18 - - -
18/11:30am - - - - - NE 26 32 14 17 - - -
18/11:00am - - - - - NE 24 32 13 17 - - -
18/10:30am - - - - - NE 24 32 13 17 - - -
18/10:00am - - - - - NE 22 30 12 16 - - -
18/09:30am - - - - - N 13 22 7 12 - - -
18/09:00am - - - - - N 15 22 8 12 - - -
18/08:30am - - - - - N 13 24 7 13 - - -
18/08:00am - - - - - N 9 17 5 9 - - -
18/07:30am - - - - - NNW 7 13 4 7 - - -
18/07:00am - - - - - NNW 7 11 4 6 - - -
18/06:30am - - - - - NW 6 7 3 4 - - -
18/06:00am - - - - - NW 4 6 2 3 - - -
18/05:30am - - - - - NNE 2 4 1 2 - - -
18/05:00am - - - - - CALM 0 0 0 0 - - -
18/04:30am - - - - - CALM 0 0 0 0 - - -
18/04:00am - - - - - E 6 9 3 5 - - -
18/03:30am - - - - - E 6 7 3 4 - - -
18/03:00am - - - - - E 9 11 5 6 - - -
18/02:30am - - - - - ESE 11 13 6 7 - - -
18/02:00am - - - - - E 9 13 5 7 - - -
18/01:30am - - - - - ESE 9 13 5 7 - - -
18/01:00am - - - - - ESE 11 15 6 8 - - -
18/12:30am - - - - - ESE 13 17 7 9 - - -
18/12:00am - - - - - ESE 11 17 6 9 - - -
 
Date/Time
EDT
Temp
°C
App
Temp
°C
Dew
Point
°C
Rel
Hum
%
Delta-T
°C
Wind Press
QNH
hPa
Press
MSL
hPa
Rain since
9am
mm
Dir  Spd
km/h
Gust
km/h
Spd
kts
Gust
kts
17/11:30pm - - - - - ESE 13 17 7 9 - - -
17/11:00pm - - - - - SE 17 22 9 12 - - -
17/10:30pm - - - - - SE 15 19 8 10 - - -
17/10:00pm - - - - - ESE 19 22 10 12 - - -
17/09:30pm - - - - - SE 19 22 10 12 - - -
17/09:00pm - - - - - SE 19 24 10 13 - - -
17/08:30pm - - - - - SE 22 26 12 14 - - -
17/08:00pm - - - - - SE 22 28 12 15 - - -
17/07:30pm - - - - - SE 22 32 12 17 - - -
17/07:00pm - - - - - SE 22 28 12 15 - - -
17/06:30pm - - - - - SE 24 30 13 16 - - -
17/06:00pm - - - - - SE 24 32 13 17 - - -
17/05:30pm - - - - - SE 26 33 14 18 - - -
17/05:00pm - - - - - SE 28 35 15 19 - - -
17/04:30pm - - - - - SE 30 35 16 19 - - -
17/04:00pm - - - - - SE 28 35 15 19 - - -
17/03:30pm - - - - - SE 28 35 15 19 - - -
17/03:00pm - - - - - SE 30 35 16 19 - - -
17/02:30pm - - - - - SE 30 37 16 20 - - -
17/02:00pm - - - - - SE 28 35 15 19 - - -
17/01:30pm - - - - - SE 28 35 15 19 - - -
17/01:00pm - - - - - SE 26 33 14 18 - - -
17/12:30pm - - - - - SE 30 37 16 20 - - -
17/12:00pm - - - - - SE 28 37 15 20 - - -
17/11:30am - - - - - SE 30 35 16 19 - - -
17/11:00am - - - - - SE 30 37 16 20 - - -
17/10:30am - - - - - SE 32 39 17 21 - - -
17/10:00am - - - - - SE 26 33 14 18 - - -
17/09:30am - - - - - SE 24 33 13 18 - - -
17/09:00am - - - - - SE 20 30 11 16 - - -
17/08:30am - - - - - S 9 15 5 8 - - -
17/08:00am - - - - - SSW 17 24 9 13 - - -
17/07:30am - - - - - SSW 15 20 8 11 - - -
17/07:00am - - - - - SSW 15 20 8 11 - - -
17/06:30am - - - - - SSW 15 20 8 11 - - -
17/06:00am - - - - - SSW 15 22 8 12 - - -
17/05:30am - - - - - SSW 13 19 7 10 - - -
17/05:00am - - - - - S 9 13 5 7 - - -
17/04:30am - - - - - S 7 11 4 6 - - -
17/04:00am - - - - - SSW 7 9 4 5 - - -
17/03:30am - - - - - S 2 4 1 2 - - -
17/03:00am - - - - - SW 6 6 3 3 - - -
17/02:30am - - - - - ENE 2 4 1 2 - - -
17/02:00am - - - - - NNE 2 6 1 3 - - -
17/01:30am - - - - - NNE 7 11 4 6 - - -
17/01:00am - - - - - NNE 15 19 8 10 - - -
17/12:30am - - - - - ESE 2 9 1 5 - - -
17/12:00am - - - - - CALM 0 0 0 0 - - -
 
Date/Time
EDT
Temp
°C
App
Temp
°C
Dew
Point
°C
Rel
Hum
%
Delta-T
°C
Wind Press
QNH
hPa
Press
MSL
hPa
Rain since
9am
mm
Dir  Spd
km/h
Gust
km/h
Spd
kts
Gust
kts
16/11:30pm - - - - - CALM 0 0 0 0 - - -
16/11:00pm - - - - - ENE 6 7 3 4 - - -
16/10:30pm - - - - - NE 9 13 5 7 - - -
16/10:00pm - - - - - E 9 13 5 7 - - -
16/09:30pm - - - - - E 7 9 4 5 - - -
16/09:00pm - - - - - ENE 9 11 5 6 - - -
16/08:30pm - - - - - E 7 11 4 6 - - -
16/08:00pm - - - - - E 9 13 5 7 - - -
16/07:30pm - - - - - E 11 13 6 7 - - -
16/07:00pm - - - - - E 11 15 6 8 - - -
16/06:30pm - - - - - E 17 20 9 11 - - -
16/06:00pm - - - - - ENE 15 20 8 11 - - -
16/05:30pm - - - - - E 15 19 8 10 - - -
16/05:00pm - - - - - E 17 22 9 12 - - -
16/04:30pm - - - - - E 17 22 9 12 - - -
16/04:00pm - - - - - E 17 20 9 11 - - -
16/03:30pm - - - - - E 17 22 9 12 - - -
16/03:00pm - - - - - E 17 24 9 13 - - -
16/02:30pm - - - - - E 19 24 10 13 - - -
16/02:00pm - - - - - E 19 24 10 13 - - -
16/01:30pm - - - - - ESE 19 24 10 13 - - -
16/01:00pm - - - - - ESE 17 22 9 12 - - -
16/12:30pm - - - - - ESE 15 20 8 11 - - -
16/12:00pm - - - - - ESE 13 17 7 9 - - -
16/11:30am - - - - - ESE 13 17 7 9 - - -
16/11:00am - - - - - SE 17 20 9 11 - - -
16/10:30am - - - - - SE 19 22 10 12 - - -
16/10:00am - - - - - SE 17 19 9 10 - - -
16/09:30am - - - - - SE 17 20 9 11 - - -
16/09:00am - - - - - ESE 11 17 6 9 - - -
16/08:30am - - - - - SE 15 19 8 10 - - -
16/08:00am - - - - - SE 20 26 11 14 - - -
16/07:30am - - - - - SSE 11 15 6 8 - - -
16/07:00am - - - - - SE 15 20 8 11 - - -
16/06:30am - - - - - SE 17 22 9 12 - - -
16/06:00am - - - - - SE 20 28 11 15 - - -
16/05:30am - - - - - SSE 22 28 12 15 - - -
16/05:00am - - - - - SSE 22 28 12 15 - - -
16/04:30am - - - - - SSE 22 30 12 16 - - -
16/04:00am - - - - - SSE 22 32 12 17 - - -
16/03:30am - - - - - S 24 32 13 17 - - -
16/03:00am - - - - - S 24 32 13 17 - - -
16/02:30am - - - - - S 24 33 13 18 - - -
16/02:00am - - - - - S 28 37 15 20 - - -
16/01:30am - - - - - S 30 41 16 22 - - -
16/01:00am - - - - - S 30 41 16 22 - - -
16/12:30am - - - - - S 32 43 17 23 - - -
16/12:00am - - - - - S 35 48 19 26 - - -
 
Date/Time
EDT
Temp
°C
App
Temp
°C
Dew
Point
°C
Rel
Hum
%
Delta-T
°C
Wind Press
QNH
hPa
Press
MSL
hPa
Rain since
9am
mm
Dir  Spd
km/h
Gust
km/h
Spd
kts
Gust
kts
15/11:30pm - - - - - S 37 50 20 27 - - -
15/11:00pm - - - - - S 30 44 16 24 - - -
15/10:30pm - - - - - S 32 43 17 23 - - -
15/10:00pm - - - - - SSW 30 43 16 23 - - -
15/09:51pm - - - - - SW 15 41 8 22 - - -
15/09:30pm - - - - - SW 7 9 4 5 - - -
15/09:00pm - - - - - SW 6 7 3 4 - - -
15/08:30pm - - - - - WSW 6 6 3 3 - - -
15/08:00pm - - - - - SW 7 9 4 5 - - -
15/07:30pm - - - - - N 4 6 2 3 - - -
15/07:00pm - - - - - NNE 13 20 7 11 - - -
15/06:30pm - - - - - NNE 15 20 8 11 - - -
15/06:00pm - - - - - NNE 20 32 11 17 - - -
15/05:30pm - - - - - N 19 28 10 15 - - -
15/05:00pm - - - - - N 22 30 12 16 - - -
15/04:30pm - - - - - NNE 17 24 9 13 - - -
15/04:00pm - - - - - NNE 26 35 14 19 - - -
15/03:30pm - - - - - NNE 30 39 16 21 - - -
15/03:00pm - - - - - NNE 24 35 13 19 - - -

Latest Capital City Observations: Canberra | Sydney | Melbourne | Brisbane | Adelaide | Perth | Hobart | Darwin

Other formats

Comma delimited format used in spreadsheet applications
http://www.bom.gov.au/fwo/IDN60901/IDN60901.94780.axf

JavaScript Object Notation format (JSON) in row-major order
http://www.bom.gov.au/fwo/IDN60901/IDN60901.94780.json

Data quality

Most of these data are generated automatically and are frequently updated. Quality checks on data are not normally performed. It is possible for incorrect values to appear. Refer to information at About Latest Weather Observations and please check the disclaimer before using these data.